Time;durP1;ratioP1;P1;durP2;ratioP2;P2;SDS_P1;SDS_P2;PMS_P1;PMS_P2;Temp;Humidity;BMP_temperature;BMP_pressure;BME280_temperature;BME280_humidity;BME280_pressure;Samples;Min_cycle;Max_cycle;Signal;HPM_P1;HPM_P2
2023/09/17 00:03:07;;;;;;;5.75;5.15;;;;;;;25.53;49.23;101255.75;21070585;28;20074;-60
2023/09/17 00:13:10;;;;;;;5.68;5.10;;;;;;;25.52;49.35;101247.63;21010815;28;20487;-58
2023/09/17 00:23:14;;;;;;;5.40;4.80;;;;;;;25.59;49.20;101259.28;21048302;28;20072;-60
2023/09/17 00:33:15;;;;;;;6.57;4.75;;;;;;;25.57;49.35;101289.59;20997329;28;20044;-60
2023/09/17 00:43:18;;;;;;;4.57;4.15;;;;;;;25.45;49.30;101255.59;21010476;28;20110;-60
2023/09/17 00:53:19;;;;;;;4.70;4.30;;;;;;;25.66;49.40;101293.38;21037385;28;20101;-60
2023/09/17 01:03:21;;;;;;;5.22;4.72;;;;;;;25.67;49.43;101299.81;20993219;28;20098;-60
2023/09/17 01:13:24;;;;;;;4.68;4.15;;;;;;;25.58;49.16;101274.44;21012925;28;20040;-60
2023/09/17 01:23:42;;;;;;;4.85;4.25;;;;;;;25.70;49.37;101293.56;21076207;28;20035;-60
2023/09/17 01:33:51;;;;;;;4.63;4.20;;;;;;;25.71;49.28;101287.69;21042230;28;20036;-60
2023/09/17 01:43:52;;;;;;;5.35;4.32;;;;;;;25.75;49.15;101285.94;20992356;28;20049;-60
2023/09/17 01:53:54;;;;;;;4.30;3.83;;;;;;;25.77;49.28;101294.88;21058128;28;20410;-60
2023/09/17 02:03:56;;;;;;;4.80;4.30;;;;;;;25.79;49.23;101309.41;21045228;28;20141;-60
2023/09/17 02:13:58;;;;;;;4.47;3.97;;;;;;;25.81;49.08;101314.75;21031300;28;20044;-59
2023/09/17 02:23:59;;;;;;;3.78;3.47;;;;;;;25.82;49.33;101308.81;21024298;28;20033;-59
2023/09/17 02:34:02;;;;;;;4.13;3.70;;;;;;;25.84;49.23;101298.16;21013212;28;20145;-60
2023/09/17 02:44:04;;;;;;;4.38;3.67;;;;;;;25.85;49.12;101288.59;21074667;28;20086;-59
2023/09/17 02:54:05;;;;;;;3.88;3.47;;;;;;;25.88;49.29;101289.09;21087548;28;20028;-59
2023/09/17 03:04:07;;;;;;;3.78;3.40;;;;;;;25.79;49.05;101264.56;21072943;28;20040;-59
2023/09/17 03:14:08;;;;;;;4.03;3.63;;;;;;;25.92;49.16;101285.38;21086309;28;20040;-61
2023/09/17 03:24:10;;;;;;;3.63;3.33;;;;;;;25.94;49.19;101293.50;21046500;28;20047;-61
2023/09/17 03:34:11;;;;;;;4.03;3.63;;;;;;;25.96;49.24;101291.22;21063289;28;20134;-60
2023/09/17 03:44:14;;;;;;;3.38;3.08;;;;;;;25.97;49.08;101287.25;21034413;28;20097;-59
2023/09/17 03:54:16;;;;;;;3.13;2.90;;;;;;;25.99;49.18;101287.81;21034739;28;20041;-59
2023/09/17 04:04:17;;;;;;;3.92;3.40;;;;;;;25.99;49.08;101307.44;21040919;28;20108;-59
2023/09/17 04:14:21;;;;;;;3.40;2.90;;;;;;;26.02;49.09;101312.41;21066933;28;20052;-63
2023/09/17 04:24:24;;;;;;;4.05;2.78;;;;;;;26.01;49.41;101310.75;21063067;28;20528;-65
2023/09/17 04:34:25;;;;;;;4.30;2.85;;;;;;;26.03;49.54;101297.28;21076662;28;20040;-60
2023/09/17 04:44:28;;;;;;;2.88;2.63;;;;;;;26.08;49.84;101300.00;21060503;28;20372;-62
2023/09/17 04:54:30;;;;;;;3.95;2.90;;;;;;;26.09;49.73;101301.66;21072870;28;20112;-61
2023/09/17 05:04:31;;;;;;;2.65;2.42;;;;;;;25.99;49.96;101271.81;21071360;28;20040;-62
2023/09/17 05:14:32;;;;;;;3.20;2.90;;;;;;;26.12;50.23;101289.81;21068768;28;20047;-62
2023/09/17 05:24:34;;;;;;;3.50;2.88;;;;;;;26.14;50.47;101269.88;21055208;28;20048;-61
2023/09/17 05:34:35;;;;;;;2.80;2.60;;;;;;;26.16;50.54;101279.66;21018805;28;20109;-60
2023/09/17 05:44:36;;;;;;;2.83;2.55;;;;;;;26.17;50.40;101286.91;21056604;28;20113;-60
2023/09/17 05:54:38;;;;;;;4.53;2.83;;;;;;;26.07;50.59;101261.84;21057043;28;20040;-60
2023/09/17 06:04:39;;;;;;;2.85;2.50;;;;;;;26.21;50.59;101281.53;21067363;28;20048;-61
2023/09/17 06:14:44;;;;;;;2.53;2.33;;;;;;;26.22;50.72;101270.00;21069212;28;20475;-61
2023/09/17 06:24:46;;;;;;;3.30;2.47;;;;;;;26.22;50.67;101264.38;21045865;28;20052;-61
2023/09/17 06:34:48;;;;;;;2.50;2.30;;;;;;;26.25;50.89;101282.53;21085783;28;20036;-60
2023/09/17 06:44:49;;;;;;;3.33;2.20;;;;;;;26.27;50.77;101292.34;21080176;28;20032;-63
2023/09/17 06:54:51;;;;;;;1.70;1.60;;;;;;;26.26;51.05;101279.44;21063339;28;20043;-61
2023/09/17 07:04:52;;;;;;;2.65;2.30;;;;;;;26.25;50.87;101276.94;21076531;28;20046;-62
2023/09/17 07:14:53;;;;;;;5.40;2.58;;;;;;;26.22;50.97;101258.78;21070565;28;20036;-62
2023/09/17 07:24:58;;;;;;;3.15;2.50;;;;;;;26.30;51.03;101266.47;21081308;28;20044;-60
2023/09/17 07:35:02;;;;;;;2.45;2.25;;;;;;;26.33;50.84;101279.88;21084063;28;20089;-62
2023/09/17 07:45:04;;;;;;;3.55;2.20;;;;;;;26.32;50.96;101272.59;21070115;28;20036;-61
2023/09/17 07:55:06;;;;;;;3.28;2.22;;;;;;;26.34;51.01;101283.50;21068554;28;20116;-60
2023/09/17 08:05:07;;;;;;;2.25;2.05;;;;;;;26.36;51.01;101272.81;21075772;28;20048;-61
2023/09/17 08:15:09;;;;;;;2.45;1.85;;;;;;;26.36;51.12;101270.84;21081162;28;20105;-62
2023/09/17 08:25:13;;;;;;;2.92;1.83;;;;;;;26.38;51.00;101286.53;21064938;28;20055;-61
2023/09/17 08:35:18;;;;;;;2.55;2.03;;;;;;;26.38;51.16;101304.19;20996694;28;20049;-60
2023/09/17 08:45:20;;;;;;;2.20;1.92;;;;;;;26.39;51.04;101310.63;21075074;28;20105;-59
2023/09/17 08:55:23;;;;;;;2.63;2.10;;;;;;;26.40;51.11;101310.34;21075546;28;20040;-60
2023/09/17 09:05:30;;;;;;;2.55;2.00;;;;;;;26.39;50.98;101325.50;21071271;28;20067;-60
2023/09/17 09:15:32;;;;;;;4.15;2.50;;;;;;;26.30;51.10;101336.63;21055572;28;20486;-60
2023/09/17 09:25:34;;;;;;;1.85;1.63;;;;;;;26.43;51.18;101365.00;21055068;28;20105;-61
2023/09/17 09:35:39;;;;;;;2.38;1.80;;;;;;;26.34;51.26;101346.09;21057841;28;20097;-61
2023/09/17 09:45:42;;;;;;;3.03;2.17;;;;;;;26.44;51.26;101349.88;21030786;28;20102;-61
2023/09/17 09:55:43;;;;;;;2.40;1.90;;;;;;;26.43;51.15;101350.97;21065063;28;20044;-59
2023/09/17 10:05:46;;;;;;;2.20;1.95;;;;;;;26.44;50.96;101358.28;21089007;28;20040;-59
2023/09/17 10:15:48;;;;;;;2.95;2.20;;;;;;;26.30;51.08;101319.78;21078431;28;20093;-60
2023/09/17 10:25:51;;;;;;;2.03;1.83;;;;;;;26.45;51.17;101337.50;21074180;28;20032;-60
2023/09/17 10:35:56;;;;;;;2.05;1.85;;;;;;;26.45;51.25;101359.94;21075604;28;20044;-61
2023/09/17 10:45:59;;;;;;;2.80;1.92;;;;;;;26.46;51.08;101372.84;21029736;28;20044;-60
2023/09/17 10:56:07;;;;;;;2.13;1.90;;;;;;;26.46;51.02;101367.22;21056285;28;20048;-61
2023/09/17 11:06:16;;;;;;;1.95;1.80;;;;;;;26.43;51.30;101381.81;21079828;28;20105;-60
2023/09/17 11:16:23;;;;;;;3.67;1.90;;;;;;;26.44;51.13;101391.97;21063912;28;20449;-62
2023/09/17 11:26:27;;;;;;;2.15;1.92;;;;;;;26.47;51.29;101408.16;21081186;28;20091;-62
2023/09/17 11:36:30;;;;;;;2.03;1.80;;;;;;;26.43;51.20;101407.94;21059965;28;20044;-63
2023/09/17 11:46:35;;;;;;;2.40;1.85;;;;;;;26.32;51.31;101398.84;21078371;28;20387;-62
2023/09/17 11:56:49;;;;;;;1.98;1.63;;;;;;;26.44;51.32;101420.03;21036368;28;20049;-63
2023/09/17 12:06:52;;;;;;;4.15;1.85;;;;;;;26.47;51.09;101413.78;21055539;28;20040;-60
2023/09/17 12:16:53;;;;;;;3.38;2.13;;;;;;;26.47;50.99;101408.16;21067607;28;20048;-60
2023/09/17 12:27:34;;;;;;;2.40;1.95;;;;;;;26.30;50.80;101381.50;21023242;28;20130;-60
2023/09/17 12:37:36;;;;;;;3.03;2.03;;;;;;;26.46;50.66;101412.94;21058285;28;20040;-60
2023/09/17 12:47:37;;;;;;;2.85;1.98;;;;;;;26.46;50.41;101426.16;21052327;28;20101;-59
2023/09/17 12:57:40;;;;;;;2.95;1.92;;;;;;;26.46;50.44;101423.34;21026526;28;20048;-60
2023/09/17 13:07:41;;;;;;;2.70;2.03;;;;;;;26.46;50.37;101412.13;21016853;28;20098;-60
2023/09/17 13:17:42;;;;;;;2.42;2.08;;;;;;;26.42;50.40;101399.81;21046298;28;20047;-60
2023/09/17 13:27:47;;;;;;;2.75;2.10;;;;;;;26.44;50.39;101406.81;21070382;28;20074;-61
2023/09/17 13:37:49;;;;;;;2.08;1.88;;;;;;;26.36;50.23;101391.50;21032994;28;20376;-61
2023/09/17 13:47:50;;;;;;;2.22;1.77;;;;;;;26.44;50.24;101394.78;21061275;28;20449;-60
2023/09/17 13:57:54;;;;;;;2.22;2.03;;;;;;;26.44;49.97;101391.97;21050968;28;20033;-60
2023/09/17 14:07:55;;;;;;;2.25;2.05;;;;;;;26.44;49.95;101380.75;21050560;28;20101;-61
2023/09/17 14:17:57;;;;;;;2.20;1.95;;;;;;;26.45;49.84;101382.41;21039207;28;20486;-61
2023/09/17 14:27:58;;;;;;;2.47;2.20;;;;;;;26.45;49.88;101349.56;21062677;28;20048;-60
2023/09/17 14:38:01;;;;;;;2.22;1.85;;;;;;;26.44;49.67;101333.88;21047300;28;20437;-61
2023/09/17 14:48:02;;;;;;;2.55;2.35;;;;;;;26.45;50.00;101323.47;21069021;28;20052;-60
2023/09/17 14:58:04;;;;;;;2.65;2.03;;;;;;;26.36;50.07;101298.06;21071067;28;20040;-62
2023/09/17 15:08:05;;;;;;;6.80;2.35;;;;;;;26.47;49.89;101310.78;21063945;28;20048;-61
2023/09/17 15:18:09;;;;;;;7.13;2.95;;;;;;;26.42;49.42;101287.56;21041704;28;20047;-62
2023/09/17 15:28:11;;;;;;;4.18;2.70;;;;;;;26.35;49.75;101276.78;21039990;28;20426;-61
2023/09/17 15:38:12;;;;;;;5.72;2.80;;;;;;;26.50;49.62;101303.72;21061136;28;20032;-62
2023/09/17 15:48:13;;;;;;;6.60;2.63;;;;;;;26.52;49.74;101304.22;21060187;28;20044;-61
2023/09/17 15:58:15;;;;;;;6.68;2.78;;;;;;;26.53;49.52;101291.88;21069962;28;20102;-61
2023/09/17 16:08:19;;;;;;;6.00;2.88;;;;;;;26.53;49.57;101277.84;21029189;28;20109;-61
2023/09/17 16:18:21;;;;;;;10.30;2.30;;;;;;;26.48;49.77;101252.66;21047865;28;20103;-63
2023/09/17 16:28:22;;;;;;;5.72;2.72;;;;;;;26.55;49.77;101250.28;21046653;28;20044;-62
2023/09/17 16:38:24;;;;;;;4.15;3.05;;;;;;;26.48;49.55;101213.38;21054263;28;20387;-62
2023/09/17 16:48:26;;;;;;;8.35;2.70;;;;;;;26.60;49.61;101256.63;21068290;28;20559;-63
2023/09/17 16:58:28;;;;;;;6.50;2.50;;;;;;;26.62;49.29;101242.31;21072845;28;20044;-62
2023/09/17 17:08:29;;;;;;;3.30;2.80;;;;;;;26.63;49.36;101224.31;21039467;28;20045;-62
2023/09/17 17:18:32;;;;;;;3.60;2.60;;;;;;;26.64;49.06;101209.13;21033508;28;20044;-62
2023/09/17 17:28:34;;;;;;;4.78;3.03;;;;;;;26.57;48.96;101186.25;21056885;28;20110;-62
2023/09/17 17:38:35;;;;;;;2.83;2.20;;;;;;;26.67;48.51;101172.00;21044668;28;20044;-62
2023/09/17 17:48:36;;;;;;;4.07;2.88;;;;;;;26.66;48.65;101169.50;21045714;28;20121;-61
2023/09/17 17:58:38;;;;;;;3.92;2.70;;;;;;;26.68;48.67;101161.63;21048959;28;20040;-63
2023/09/17 18:08:39;;;;;;;4.03;2.88;;;;;;;26.68;48.63;101139.97;21039282;28;20035;-62
2023/09/17 18:18:50;;;;;;;3.55;3.17;;;;;;;26.68;48.62;101130.72;21061358;28;20032;-59
2023/09/17 18:28:52;;;;;;;4.43;3.25;;;;;;;26.67;48.43;101121.50;21024630;28;20075;-65
2023/09/17 18:38:54;;;;;;;5.15;2.70;;;;;;;26.68;48.70;101109.09;21069927;28;20036;-63
2023/09/17 18:48:55;;;;;;;5.40;3.17;;;;;;;26.67;48.54;101099.03;21081639;28;20074;-63
2023/09/17 18:58:57;;;;;;;3.22;2.70;;;;;;;26.68;48.46;101072.63;21085362;28;20028;-63
2023/09/17 19:08:58;;;;;;;2.95;2.65;;;;;;;26.53;48.58;101036.50;21075305;28;20032;-64
2023/09/17 19:18:59;;;;;;;3.35;2.88;;;;;;;26.67;48.69;101047.69;21073641;28;20032;-62
2023/09/17 19:29:03;;;;;;;3.25;2.60;;;;;;;26.66;48.40;101046.81;21084971;28;20074;-61
2023/09/17 19:39:04;;;;;;;3.33;2.80;;;;;;;26.67;48.33;101042.06;21086326;28;20047;-62
2023/09/17 19:49:06;;;;;;;2.97;2.70;;;;;;;26.66;48.52;101027.19;21084877;28;20052;-62
2023/09/17 19:59:10;;;;;;;3.20;2.90;;;;;;;26.59;48.45;100998.75;21083790;28;20028;-61
2023/09/17 20:09:12;;;;;;;2.65;2.45;;;;;;;26.67;48.53;101009.22;21077265;28;20117;-61
2023/09/17 20:19:13;;;;;;;2.97;2.67;;;;;;;26.65;48.64;101028.31;21078949;28;20044;-62
2023/09/17 20:29:14;;;;;;;2.90;2.70;;;;;;;26.65;48.73;101062.00;21078723;28;20032;-61
2023/09/17 20:39:16;;;;;;;3.60;3.03;;;;;;;26.67;48.59;101093.41;21076174;28;20029;-60
2023/09/17 20:49:23;;;;;;;7.53;6.38;;;;;;;26.65;48.73;101098.50;21041763;28;20479;-61
2023/09/17 20:59:24;;;;;;;44.90;33.92;;;;;;;26.68;48.98;101086.66;21051871;28;20040;-60
2023/09/17 21:09:27;;;;;;;95.97;67.18;;;;;;;26.66;49.22;101057.22;21060345;28;20499;-60
2023/09/17 21:19:28;;;;;;;111.10;79.63;;;;;;;26.69;49.02;101067.81;21071727;28;20040;-60
2023/09/17 21:29:30;;;;;;;109.60;79.50;;;;;;;26.69;49.25;101062.22;21071305;28;20390;-60
2023/09/17 21:39:31;;;;;;;100.00;72.03;;;;;;;26.68;49.17;101055.78;21059560;28;20371;-61
2023/09/17 21:49:33;;;;;;;88.30;65.20;;;;;;;26.27;49.42;100992.16;21059878;28;20048;-60
2023/09/17 21:59:34;;;;;;;78.18;56.80;;;;;;;26.69;49.45;101063.03;21061657;28;20036;-61
2023/09/17 22:09:37;;;;;;;70.05;52.28;;;;;;;26.68;49.46;101055.78;21078208;28;20537;-61
2023/09/17 22:19:41;;;;;;;64.28;48.17;;;;;;;26.58;49.41;101042.00;21076108;28;20028;-61
2023/09/17 22:29:42;;;;;;;56.35;42.95;;;;;;;26.67;49.20;101051.31;21069825;28;20445;-60
2023/09/17 22:39:44;;;;;;;50.67;37.63;;;;;;;26.70;49.27;101053.47;21074218;28;20040;-61
2023/09/17 22:49:54;;;;;;;46.45;35.72;;;;;;;26.65;49.35;101035.91;21068367;28;20040;-61
2023/09/17 22:59:55;;;;;;;41.13;32.70;;;;;;;26.70;49.40;101042.22;21081100;28;20040;-62
2023/09/17 23:09:57;;;;;;;40.30;30.88;;;;;;;26.71;49.24;101043.91;21079549;28;20044;-62
2023/09/17 23:19:58;;;;;;;35.25;28.48;;;;;;;26.72;49.33;101050.34;21085318;28;20036;-60
2023/09/17 23:30:00;;;;;;;31.95;26.13;;;;;;;26.60;49.40;101036.88;21087510;28;20052;-61
2023/09/17 23:40:03;;;;;;;28.73;23.65;;;;;;;26.73;49.31;101057.63;21072156;28;20040;-60
2023/09/17 23:50:05;;;;;;;26.92;21.77;;;;;;;26.73;49.17;101075.28;21025158;28;20090;-61
